Data for 02/28/2014

Time Sea-Level Adjusted Pressure Absolute Pressure Temperature Relative Humidity Dew Point   
(mb) (inHg) (mb) (inHg) (C) (F) (%) (C) (F)
00:05 1006 29.71 835 24.66 -4.6 23.7 91 -5.9 21.4
00:10 1006 29.71 835 24.66 -5.1 22.9 92 -6.1 21
00:15 1006 29.71 835 24.66 -5.2 22.7 93 -6.1 21
00:20 1006 29.71 835 24.66 -5.1 22.8 93 -6.1 21.1
00:25 1006 29.71 835 24.66 -5 23 93 -5.9 21.4
00:30 1006 29.71 835 24.66 -4.9 23.2 93 -5.8 21.5
00:35 1006 29.71 835 24.66 -4.8 23.4 93 -5.7 21.7
00:40 1006 29.71 835 24.66 -4.6 23.7 94 -5.5 22.1
00:45 1006 29.71 835 24.66 -4.4 24 93 -5.4 22.3
00:50 1006 29.71 835 24.66 -4.3 24.3 92 -5.4 22.3
00:55 1006 29.71 835 24.66 -4.3 24.2 91 -5.6 21.9
01:00 1006 29.71 835 24.66 -4.4 24.1 91 -5.7 21.8
01:05 1006 29.71 836 24.69 -4.6 23.8 91 -5.9 21.5
01:10 1006 29.71 836 24.69 -4.7 23.5 91 -5.9 21.3
01:15 1006 29.71 836 24.69 -4.8 23.4 91 -6 21.1
01:20 1007 29.74 836 24.69 -4.9 23.1 91 -6.2 20.8
01:25 1007 29.74 836 24.69 -5 23 91 -6.2 20.8
01:30 1007 29.74 836 24.69 -5.1 22.9 91 -6.3 20.7
01:35 1007 29.74 836 24.69 -5.1 22.8 91 -6.3 20.6
01:40 1007 29.74 836 24.69 -5.1 22.8 92 -6.3 20.7
01:45 1007 29.74 836 24.69 -5.1 22.8 91 -6.3 20.6
01:50 1007 29.74 836 24.69 -5.3 22.5 91 -6.5 20.3
01:55 1007 29.74 836 24.69 -5.5 22.2 91 -6.7 19.9
02:00 1007 29.74 837 24.72 -5.6 22 91 -6.8 19.7
02:05 1007 29.74 837 24.72 -5.7 21.8 91 -7 19.5
02:10 1008 29.77 837 24.72 -5.8 21.6 91 -7.1 19.3
02:15 1008 29.77 837 24.72 -5.9 21.3 90 -7.3 18.9
02:20 1008 29.77 837 24.72 -6.1 21 90 -7.5 18.6
02:25 1008 29.77 837 24.72 -6.3 20.7 90 -7.6 18.3
02:30 1008 29.77 837 24.72 -6.3 20.6 90 -7.7 18.2
02:35 1008 29.77 837 24.72 -6.4 20.6 90 -7.7 18.1
02:40 1008 29.77 837 24.72 -6.4 20.5 90 -7.7 18.1
02:45 1008 29.77 837 24.72 -6.4 20.4 90 -7.8 18
02:50 1008 29.77 837 24.72 -6.6 20.2 90 -7.9 17.8
02:55 1008 29.77 838 24.75 -6.6 20 91 -7.9 17.7
03:00 1008 29.77 838 24.75 -6.7 19.9 90 -8.1 17.5
03:05 1008 29.77 838 24.75 -6.8 19.8 90 -8.2 17.2
03:10 1009 29.8 838 24.75 -7 19.5 89 -8.5 16.8
03:15 1009 29.8 838 24.75 -7.1 19.2 90 -8.5 16.7
03:20 1009 29.8 838 24.75 -7.2 19 90 -8.6 16.5
03:25 1009 29.8 838 24.75 -7.2 19.1 90 -8.5 16.7
03:30 1009 29.8 838 24.75 -7.1 19.2 89 -8.6 16.5
03:35 1009 29.8 838 24.75 -7.4 18.8 89 -8.8 16.1
03:40 1009 29.8 838 24.75 -7.5 18.5 89 -9 15.7
03:45 1009 29.8 838 24.75 -7.8 18 90 -9.2 15.4
03:50 1009 29.8 838 24.75 -8 17.7 90 -9.4 15.1
03:55 1009 29.8 838 24.75 -8.1 17.5 89 -9.5 14.9
04:00 1009 29.8 838 24.75 -8.3 17.1 90 -9.7 14.6
04:05 1009 29.8 838 24.75 -8.3 17.1 90 -9.7 14.6
04:10 1009 29.8 838 24.75 -8.2 17.2 90 -9.6 14.7
04:15 1009 29.8 838 24.75 -8.3 17.1 89 -9.8 14.4
04:20 1009 29.8 839 24.78 -8.5 16.8 88 -10 13.9
04:25 1009 29.8 839 24.78 -8.6 16.5 89 -10.1 13.8
04:30 1009 29.8 839 24.78 -8.6 16.4 88 -10.3 13.5
04:35 1009 29.8 839 24.78 -8.7 16.3 88 -10.4 13.3
04:40 1010 29.83 839 24.78 -8.8 16.1 88 -10.5 13.1
04:45 1010 29.83 839 24.78 -9 15.8 88 -10.6 12.9
04:50 1010 29.83 839 24.78 -9.1 15.7 89 -10.6 12.9
04:55 1010 29.83 839 24.78 -9.2 15.4 88 -10.8 12.6
05:00 1010 29.83 839 24.78 -9.3 15.3 88 -10.9 12.4
05:05 1010 29.83 839 24.78 -9.4 15.1 89 -10.9 12.3
05:10 1010 29.83 839 24.78 -9.4 15.1 88 -11 12.3
05:15 1010 29.83 839 24.78 -9.4 15.2 88 -11.1 12.1
05:20 1010 29.83 839 24.78 -9.6 14.8 87 -11.3 11.7
05:25 1010 29.83 839 24.78 -9.8 14.4 87 -11.5 11.3
05:30 1010 29.83 839 24.78 -9.8 14.4 87 -11.5 11.3
05:35 1010 29.83 839 24.78 -9.8 14.4 87 -11.5 11.3
05:40 1010 29.83 839 24.78 -9.8 14.4 87 -11.5 11.2
05:45 1010 29.83 840 24.81 -9.8 14.3 87 -11.6 11.2
05:50 1010 29.83 840 24.81 -9.9 14.3 87 -11.6 11.1
05:55 1010 29.83 840 24.81 -9.9 14.1 87 -11.7 10.9
06:00 1010 29.83 840 24.81 -9.9 14.1 87 -11.7 10.9
06:05 1011 29.85 840 24.81 -10 14.1 86 -11.8 10.7
06:10 1011 29.85 840 24.81 -10.1 13.9 87 -11.8 10.7
06:15 1011 29.85 840 24.81 -10.1 13.9 87 -11.9 10.7
06:20 1011 29.85 840 24.81 -10.1 13.8 88 -11.8 10.8
06:25 1011 29.85 840 24.81 -10.1 13.7 88 -11.8 10.8
06:30 1011 29.85 840 24.81 -10.1 13.9 87 -11.9 10.6
06:35 1011 29.85 840 24.81 -10.2 13.6 86 -12.1 10.2
06:40 1011 29.85 840 24.81 -10.2 13.7 86 -12.1 10.3
06:45 1011 29.85 840 24.81 -10.2 13.7 85 -12.2 10
06:50 1011 29.85 840 24.81 -10.2 13.6 85 -12.3 9.8
06:55 1011 29.85 840 24.81 -10.3 13.4 85 -12.5 9.6
07:00 1011 29.85 840 24.81 -10.4 13.4 84 -12.5 9.5
07:05 1011 29.85 840 24.81 -10.4 13.3 84 -12.6 9.3
07:10 1011 29.85 840 24.81 -10.5 13.1 84 -12.7 9.1
07:15 1011 29.85 840 24.81 -10.6 13 84 -12.8 8.9
07:20 1011 29.85 840 24.81 -10.7 12.8 84 -12.9 8.7
07:25 1011 29.85 840 24.81 -10.8 12.7 84 -12.9 8.8
07:30 1011 29.85 840 24.81 -10.8 12.6 84 -13 8.6
07:35 1011 29.85 840 24.81 -10.8 12.6 84 -13 8.5
07:40 1011 29.85 840 24.81 -10.8 12.6 84 -13 8.5
07:45 1011 29.85 840 24.81 -10.8 12.6 83 -13.2 8.3
07:50 1011 29.85 840 24.81 -10.9 12.4 83 -13.3 8.1
07:55 1011 29.85 840 24.81 -10.9 12.3 82 -13.4 7.9
08:00 1011 29.85 840 24.81 -11 12.2 83 -13.4 7.8
08:05 1011 29.85 840 24.81 -11.1 12.1 83 -13.5 7.8
08:10 1011 29.85 840 24.81 -11.1 12 82 -13.6 7.5
08:15 1011 29.85 841 24.83 -11.3 11.6 83 -13.6 7.4
08:20 1011 29.85 841 24.83 -11.4 11.5 83 -13.7 7.4
08:25 1011 29.85 841 24.83 -11.5 11.2 84 -13.7 7.4
08:30 1012 29.88 841 24.83 -11.6 11.1 84 -13.8 7.2
08:35 1012 29.88 841 24.83 -11.7 11 84 -13.8 7.1
08:40 1012 29.88 841 24.83 -11.7 10.9 85 -13.8 7.2
08:45 1012 29.88 841 24.83 -11.6 11.2 84 -13.8 7.1
08:50 1012 29.88 841 24.83 -11.6 11.2 84 -13.8 7.2
08:55 1012 29.88 841 24.83 -11.6 11.2 84 -13.7 7.3
09:00 1012 29.88 841 24.83 -11.6 11.1 85 -13.7 7.4
09:05 1012 29.88 841 24.83 -11.6 11.1 84 -13.8 7.1
09:10 1012 29.88 841 24.83 -11.7 10.9 85 -13.8 7.1
09:15 1012 29.88 841 24.83 -11.7 11 84 -13.9 6.9
09:20 1012 29.88 841 24.83 -11.7 11 83 -14.1 6.7
09:25 1012 29.88 841 24.83 -11.9 10.6 83 -14.2 6.4
09:30 1012 29.88 841 24.83 -11.9 10.5 84 -14.2 6.5
09:35 1012 29.88 841 24.83 -11.7 11 82 -14.2 6.5
09:40 1012 29.88 841 24.83 -11.8 10.7 82 -14.3 6.3
09:45 1012 29.88 841 24.83 -11.8 10.8 81 -14.5 6
09:50 1012 29.88 841 24.83 -11.8 10.8 80 -14.6 5.8
09:55 1012 29.88 841 24.83 -11.7 11 81 -14.4 6.2
10:00 1012 29.88 841 24.83 -11.7 11 80 -14.4 6
10:05 1012 29.88 841 24.83 -11.7 11 79 -14.6 5.7
10:10 1012 29.88 841 24.83 -11.7 10.9 79 -14.6 5.7
10:15 1012 29.88 841 24.83 -11.8 10.8 79 -14.8 5.4
10:20 1012 29.88 841 24.83 -11.5 11.3 79 -14.5 5.8
10:25 1012 29.88 841 24.83 -11.6 11 78 -14.8 5.4
10:30 1012 29.88 841 24.83 -11.7 10.9 78 -14.8 5.3
10:35 1012 29.88 841 24.83 -12 10.4 77 -15.2 4.6
10:40 1012 29.88 841 24.83 -12.1 10.2 78 -15.2 4.6
10:45 1012 29.88 841 24.83 -12.2 10.1 79 -15.1 4.8
10:50 1012 29.88 841 24.83 -11.8 10.8 77 -15.1 4.8
10:55 1012 29.88 841 24.83 -11.7 10.9 76 -15.2 4.7
11:00 1012 29.88 841 24.83 -11.8 10.8 77 -15 4.9
11:05 1012 29.88 841 24.83 -11.6 11.1 75 -15.2 4.6
11:10 1012 29.88 841 24.83 -11.9 10.6 75 -15.4 4.3
11:15 1012 29.88 841 24.83 -11.9 10.7 77 -15.1 4.9
11:20 1012 29.88 841 24.83 -11.6 11.1 77 -14.8 5.3
11:25 1012 29.88 841 24.83 -11.7 10.9 76 -15.2 4.6
11:30 1012 29.88 841 24.83 -11.9 10.7 77 -15 4.9
11:35 1012 29.88 841 24.83 -11.7 10.9 76 -15.1 4.9
11:40 1012 29.88 841 24.83 -11.9 10.6 77 -15.1 4.8
11:45 1012 29.88 841 24.83 -11.6 11.2 75 -15.2 4.6
11:50 1012 29.88 841 24.83 -11.5 11.2 75 -15.2 4.7
11:55 1012 29.88 841 24.83 -11.7 11 76 -15.1 4.8
12:00 1012 29.88 841 24.83 -11.7 10.9 77 -14.9 5.1
12:05 1012 29.88 841 24.83 -11.7 10.9 78 -14.8 5.3
12:10 1012 29.88 841 24.83 -11.7 11 78 -14.7 5.5
12:15 1012 29.88 841 24.83 -12 10.4 78 -15.1 4.9
12:20 1012 29.88 841 24.83 -12.3 9.8 79 -15.3 4.5
12:25 1012 29.88 841 24.83 -12.2 10 78 -15.3 4.5
12:30 1012 29.88 841 24.83 -12.3 9.9 78 -15.4 4.4
12:35 1012 29.88 841 24.83 -11.9 10.7 77 -15.2 4.7
12:40 1012 29.88 841 24.83 -11.7 10.9 78 -14.8 5.3
12:45 1012 29.88 841 24.83 -11 12.2 74 -14.8 5.3
12:50 1012 29.88 841 24.83 -10.8 12.5 73 -14.8 5.4
12:55 1012 29.88 841 24.83 -10.3 13.5 71 -14.5 5.9
13:00 1012 29.88 841 24.83 -9.7 14.5 70 -14.2 6.5
13:05 1012 29.88 841 24.83 -10.1 13.8 73 -14.1 6.6
13:10 1012 29.88 841 24.83 -10.4 13.2 68 -15.3 4.5
13:15 1012 29.88 841 24.83 -10.9 12.5 66 -16 3.1
13:20 1012 29.88 841 24.83 -11.1 12 70 -15.6 3.9
13:25 1012 29.88 841 24.83 -11.6 11.1 70 -16 3.2
13:30 1012 29.88 841 24.83 -11.7 10.9 69 -16.3 2.7
13:35 1012 29.88 841 24.83 -11.8 10.7 67 -16.7 1.9
13:40 1012 29.88 841 24.83 -11.7 11 66 -16.8 1.7
13:45 1012 29.88 841 24.83 -11.6 11.1 61 -17.6 0.2
13:50 1012 29.88 841 24.83 -11.6 11.2 62 -17.5 0.5
13:55 1012 29.88 841 24.83 -11.8 10.8 64 -17.2 1
14:00 1012 29.88 841 24.83 -11.8 10.8 63 -17.5 0.4
14:05 1012 29.88 841 24.83 -11.7 11 60 -18 -0.4
14:10 1012 29.88 841 24.83 -11.9 10.7 61 -18 -0.4
14:15 1012 29.88 841 24.83 -11.7 11 63 -17.5 0.6
14:20 1012 29.88 841 24.83 -11.1 12.1 59 -17.5 0.5
14:25 1012 29.88 841 24.83 -11.5 11.4 59 -17.9 -0.2
14:30 1012 29.88 841 24.83 -11.9 10.5 60 -18.3 -0.9
14:35 1011 29.85 841 24.83 -11.9 10.5 58 -18.6 -1.6
14:40 1011 29.85 841 24.83 -11.9 10.6 59 -18.3 -1
14:45 1011 29.85 840 24.81 -12.1 10.3 60 -18.2 -0.8
14:50 1011 29.85 840 24.81 -11.9 10.5 61 -18 -0.4
14:55 1011 29.85 840 24.81 -12 10.3 62 -17.8 -0.1
15:00 1011 29.85 840 24.81 -12 10.4 63 -17.7 0.2
15:05 1011 29.85 840 24.81 -12.1 10.1 64 -17.7 0.1
15:10 1011 29.85 840 24.81 -12 10.5 64 -17.5 0.5
15:15 1011 29.85 840 24.81 -11.8 10.8 64 -17.3 0.9
15:20 1011 29.85 840 24.81 -11.7 10.9 61 -17.7 0.1
15:25 1011 29.85 840 24.81 -11.7 10.9 62 -17.7 0.2
15:30 1011 29.85 840 24.81 -12.2 10.1 62 -18 -0.4
15:35 1011 29.85 840 24.81 -12.4 9.7 62 -18.3 -1
15:40 1011 29.85 840 24.81 -12.4 9.6 63 -18 -0.4
15:45 1011 29.85 840 24.81 -12.4 9.8 63 -18.1 -0.5
15:50 1011 29.85 840 24.81 -12.4 9.7 62 -18.3 -1
15:55 1011 29.85 840 24.81 -12.7 9.1 62 -18.6 -1.4
16:00 1011 29.85 840 24.81 -12.8 9 63 -18.5 -1.3
16:05 1011 29.85 840 24.81 -12.9 8.9 62 -18.7 -1.6
16:10 1011 29.85 840 24.81 -12.9 8.8 64 -18.4 -1.1
16:15 1011 29.85 840 24.81 -12.9 8.7 63 -18.5 -1.3
16:20 1011 29.85 840 24.81 -13.1 8.4 63 -18.7 -1.7
16:25 1011 29.85 840 24.81 -13.3 8 63 -19 -2.2
16:30 1011 29.85 840 24.81 -13.6 7.6 64 -18.9 -2
16:35 1011 29.85 840 24.81 -13.6 7.6 65 -18.8 -1.8
16:40 1011 29.85 840 24.81 -13.7 7.3 65 -19 -2.2
16:45 1011 29.85 840 24.81 -13.8 7.1 65 -19.1 -2.4
16:50 1011 29.85 840 24.81 -13.9 7 66 -18.9 -2.1
16:55 1011 29.85 840 24.81 -14.2 6.5 66 -19.2 -2.6
17:00 1011 29.85 840 24.81 -14.2 6.4 67 -19.1 -2.4
17:05 1011 29.85 840 24.81 -14.2 6.4 65 -19.4 -3
17:10 1011 29.85 840 24.81 -14.4 6.1 66 -19.5 -3.1
17:15 1011 29.85 840 24.81 -14.6 5.7 67 -19.5 -3
17:20 1011 29.85 840 24.81 -14.7 5.6 67 -19.5 -3.1
17:25 1011 29.85 840 24.81 -14.9 5.2 68 -19.5 -3.1
17:30 1011 29.85 840 24.81 -15.1 4.9 69 -19.6 -3.3
17:35 1011 29.85 840 24.81 -15.2 4.6 69 -19.7 -3.5
17:40 1011 29.85 840 24.81 -15.2 4.6 68 -19.9 -3.8
17:45 1011 29.85 840 24.81 -15.4 4.2 69 -19.9 -3.8
17:50 1011 29.85 840 24.81 -15.5 4.1 70 -19.8 -3.6
17:55 1011 29.85 840 24.81 -15.6 4 70 -19.8 -3.6
18:00 1011 29.85 841 24.83 -15.6 3.9 70 -20 -3.9
18:05 1011 29.85 841 24.83 -15.6 3.9 69 -20.1 -4.2
18:10 1011 29.85 841 24.83 -15.7 3.8 68 -20.3 -4.5
18:15 1011 29.85 841 24.83 -15.7 3.8 68 -20.3 -4.5
18:20 1012 29.88 841 24.83 -15.7 3.7 67 -20.5 -4.9
18:25 1012 29.88 841 24.83 -15.7 3.7 67 -20.5 -5
18:30 1012 29.88 841 24.83 -15.8 3.6 67 -20.7 -5.2
18:35 1012 29.88 841 24.83 -15.9 3.4 67 -20.7 -5.3
18:40 1012 29.88 841 24.83 -15.9 3.3 68 -20.6 -5.1
18:45 1012 29.88 841 24.83 -15.9 3.3 67 -20.7 -5.2
18:50 1012 29.88 841 24.83 -16 3.3 67 -20.7 -5.3
18:55 1012 29.88 841 24.83 -16 3.2 68 -20.7 -5.2
19:00 1012 29.88 841 24.83 -16.1 3 69 -20.6 -5.1
19:05 1012 29.88 841 24.83 -16.2 2.9 68 -20.7 -5.3
19:10 1012 29.88 841 24.83 -16.3 2.7 69 -20.8 -5.5
19:15 1012 29.88 841 24.83 -16.3 2.6 67 -21 -5.8
19:20 1012 29.88 841 24.83 -16.3 2.7 67 -21 -5.8
19:25 1012 29.88 841 24.83 -16.4 2.6 68 -21 -5.8
19:30 1012 29.88 841 24.83 -16.4 2.4 67 -21.3 -6.3
19:35 1012 29.88 841 24.83 -16.5 2.4 68 -21.1 -6
19:40 1012 29.88 841 24.83 -16.5 2.3 67 -21.3 -6.3
19:45 1012 29.88 841 24.83 -16.6 2.2 67 -21.3 -6.4
19:50 1012 29.88 841 24.83 -16.6 2.1 67 -21.3 -6.4
19:55 1012 29.88 841 24.83 -16.7 2 67 -21.4 -6.6
20:00 1012 29.88 841 24.83 -16.7 2 66 -21.6 -6.8
20:05 1012 29.88 841 24.83 -16.7 1.9 67 -21.5 -6.7
20:10 1012 29.88 841 24.83 -16.7 1.9 68 -21.4 -6.4
20:15 1012 29.88 841 24.83 -16.7 1.9 68 -21.3 -6.4
20:20 1012 29.88 841 24.83 -16.8 1.8 67 -21.6 -6.8
20:25 1012 29.88 841 24.83 -16.9 1.6 67 -21.7 -7.1
20:30 1012 29.88 842 24.86 -17 1.4 67 -21.8 -7.2
20:35 1012 29.88 842 24.86 -17.2 1.1 67 -21.9 -7.4
20:40 1012 29.88 842 24.86 -17.2 1 68 -21.7 -7.1
20:45 1012 29.88 842 24.86 -17.3 0.8 69 -21.7 -7
20:50 1013 29.91 842 24.86 -17.5 0.6 68 -22 -7.6
20:55 1013 29.91 842 24.86 -17.6 0.4 68 -22.2 -7.9
21:00 1013 29.91 842 24.86 -17.7 0.2 68 -22.2 -8
21:05 1013 29.91 842 24.86 -17.7 0.1 68 -22.2 -8
21:10 1013 29.91 842 24.86 -17.8 -0 70 -22.1 -7.7
21:15 1013 29.91 842 24.86 -17.9 -0.2 69 -22.3 -8.2
21:20 1013 29.91 842 24.86 -17.9 -0.3 70 -22.2 -7.9
21:25 1013 29.91 842 24.86 -18 -0.5 70 -22.3 -8.1
21:30 1013 29.91 842 24.86 -18.1 -0.5 71 -22.2 -7.9
21:35 1013 29.91 842 24.86 -18.2 -0.7 71 -22.2 -7.9
21:40 1013 29.91 842 24.86 -18.2 -0.8 72 -22.1 -7.8
21:45 1013 29.91 842 24.86 -18.3 -1 73 -22.1 -7.8
21:50 1013 29.91 842 24.86 -18.4 -1.1 73 -22.1 -7.8
21:55 1013 29.91 842 24.86 -18.4 -1.1 73 -22.2 -7.9
22:00 1013 29.91 842 24.86 -18.4 -1.2 73 -22.2 -7.9
22:05 1013 29.91 842 24.86 -18.5 -1.3 74 -22.1 -7.8
22:10 1013 29.91 842 24.86 -18.5 -1.4 75 -21.9 -7.5
22:15 1013 29.91 843 24.89 -18.6 -1.4 74 -22.1 -7.8
22:20 1013 29.91 842 24.86 -18.6 -1.6 74 -22.2 -7.9
22:25 1014 29.94 843 24.89 -18.7 -1.6 75 -22.1 -7.7
22:30 1013 29.91 843 24.89 -18.7 -1.7 76 -22 -7.7
22:35 1013 29.91 843 24.89 -18.8 -1.8 76 -22 -7.6
22:40 1014 29.94 843 24.89 -18.8 -1.8 76 -22 -7.6
22:45 1014 29.94 843 24.89 -18.7 -1.7 74 -22.4 -8.2
22:50 1014 29.94 843 24.89 -18.7 -1.7 73 -22.4 -8.4
22:55 1014 29.94 843 24.89 -18.8 -1.8 74 -22.4 -8.3
23:00 1014 29.94 843 24.89 -18.9 -2 74 -22.4 -8.4
23:05 1014 29.94 843 24.89 -19 -2.1 74 -22.5 -8.5
23:10 1014 29.94 843 24.89 -19 -2.3 75 -22.5 -8.5
23:15 1014 29.94 843 24.89 -19.2 -2.6 76 -22.5 -8.5
23:20 1014 29.94 843 24.89 -19.4 -2.9 76 -22.6 -8.6
23:25 1014 29.94 843 24.89 -19.5 -3 76 -22.7 -8.8
23:30 1014 29.94 843 24.89 -19.5 -3.2 76 -22.7 -8.8
23:35 1014 29.94 843 24.89 -19.5 -3.1 76 -22.8 -9
23:40 1014 29.94 844 24.92 -19.4 -3 75 -22.8 -9
23:45 1014 29.94 844 24.92 -19.5 -3 74 -23 -9.3
23:50 1014 29.94 844 24.92 -19.4 -3 73 -23.2 -9.8
23:55 1015 29.97 844 24.92 -19.5 -3.2 75 -22.9 -9.2
24:00 1015 29.97 844 24.92 -19.8 -3.6 77 -22.8 -9.1